createdAt,value
2022-09-21T00:01:39.654Z,9.15
2022-09-21T00:04:08.344Z,9.14
2022-09-21T00:06:38.094Z,9.14
2022-09-21T00:09:08.510Z,9.12
2022-09-21T00:11:37.545Z,9.11
2022-09-21T00:14:10.853Z,9.09
2022-09-21T00:16:41.767Z,9.05
2022-09-21T00:19:12.174Z,9.01
2022-09-21T00:21:40.488Z,8.95
2022-09-21T00:24:08.891Z,8.90
2022-09-21T00:26:37.108Z,8.86
2022-09-21T00:29:05.664Z,8.82
2022-09-21T00:31:35.096Z,8.77
2022-09-21T00:34:08.006Z,8.72
2022-09-21T00:36:36.612Z,8.65
2022-09-21T00:39:05.533Z,8.60
2022-09-21T00:41:34.759Z,8.53
2022-09-21T00:44:32.259Z,8.48
2022-09-21T00:47:10.285Z,8.44
2022-09-21T00:49:40.150Z,8.40
2022-09-21T00:52:12.768Z,8.38
2022-09-21T00:54:56.651Z,8.34
2022-09-21T00:57:27.616Z,8.35
2022-09-21T00:59:59.329Z,8.34
2022-09-21T01:02:28.694Z,8.33
2022-09-21T01:04:57.517Z,8.30
2022-09-21T01:07:29.632Z,8.27
2022-09-21T01:10:02.756Z,8.25
2022-09-21T01:12:53.003Z,8.22
2022-09-21T01:15:43.065Z,8.19
2022-09-21T01:18:28.149Z,8.14
2022-09-21T01:21:14.714Z,8.10
2022-09-21T01:23:50.429Z,8.07
2022-09-21T01:26:31.176Z,8.06
2022-09-21T01:29:02.135Z,8.05
2022-09-21T01:32:10.496Z,8.03
2022-09-21T01:35:00.962Z,7.98
2022-09-21T01:37:42.351Z,7.97
2022-09-21T01:40:21.970Z,7.97
2022-09-21T01:42:52.528Z,7.98
2022-09-21T01:45:28.253Z,7.97
2022-09-21T01:47:59.759Z,7.95
2022-09-21T01:50:34.922Z,7.93
2022-09-21T01:53:07.284Z,7.95
2022-09-21T01:55:50.196Z,7.97
2022-09-21T01:58:27.183Z,7.96
2022-09-21T02:00:58.174Z,7.96
2022-09-21T02:04:01.954Z,7.96
2022-09-21T02:06:32.149Z,7.98
2022-09-21T02:09:01.052Z,8.00
2022-09-21T02:11:29.393Z,8.02
2022-09-21T02:13:57.651Z,8.05
2022-09-21T02:16:46.102Z,8.07
2022-09-21T02:19:26.345Z,8.10
2022-09-21T02:22:14.924Z,8.14
2022-09-21T02:24:47.506Z,8.17
2022-09-21T02:27:39.744Z,8.19
2022-09-21T02:30:17.310Z,8.21
2022-09-21T02:33:04.229Z,8.23
2022-09-21T02:35:48.701Z,8.27
2022-09-21T02:38:58.275Z,8.28
2022-09-21T02:41:49.340Z,8.30
2022-09-21T02:44:32.790Z,8.32
2022-09-21T02:47:20.401Z,8.33
2022-09-21T02:49:55.129Z,8.35
2022-09-21T02:52:25.409Z,8.35
2022-09-21T02:54:55.832Z,8.37
2022-09-21T02:57:25.981Z,8.38
2022-09-21T02:59:54.204Z,8.40
2022-09-21T03:02:22.487Z,8.42
2022-09-21T03:04:50.878Z,8.43
2022-09-21T03:07:19.108Z,8.43
2022-09-21T03:09:47.413Z,8.45
2022-09-21T03:12:15.629Z,8.46
2022-09-21T03:14:44.067Z,8.46
2022-09-21T03:17:12.226Z,8.47
2022-09-21T03:19:40.915Z,8.48
2022-09-21T03:22:09.338Z,8.49
2022-09-21T03:24:46.891Z,8.49
2022-09-21T03:27:21.123Z,8.51
2022-09-21T03:29:49.980Z,8.53
2022-09-21T03:32:18.414Z,8.54
2022-09-21T03:34:46.718Z,8.56
2022-09-21T03:37:14.986Z,8.57
2022-09-21T03:39:43.332Z,8.57
2022-09-21T03:42:14.330Z,8.57
2022-09-21T03:44:43.193Z,8.58
2022-09-21T03:47:11.460Z,8.57
2022-09-21T03:49:39.657Z,8.57
2022-09-21T03:52:07.850Z,8.58
2022-09-21T03:54:36.226Z,8.58
2022-09-21T03:57:04.782Z,8.58
2022-09-21T03:59:32.981Z,8.58
2022-09-21T04:02:01.274Z,8.59
2022-09-21T04:04:29.510Z,8.59
2022-09-21T04:06:59.982Z,8.59
2022-09-21T04:09:28.261Z,8.58
2022-09-21T04:11:56.586Z,8.58
2022-09-21T04:14:25.189Z,8.59
2022-09-21T04:16:53.475Z,8.61
2022-09-21T04:19:22.758Z,8.62
2022-09-21T04:21:56.280Z,8.61
2022-09-21T04:24:24.606Z,8.63
2022-09-21T04:26:52.986Z,8.65
2022-09-21T04:29:21.704Z,8.65
2022-09-21T04:31:50.068Z,8.67
2022-09-21T04:34:18.363Z,8.69
2022-09-21T04:36:47.461Z,8.69
2022-09-21T04:39:15.781Z,8.70
2022-09-21T04:41:44.121Z,8.71
2022-09-21T04:44:12.332Z,8.71
2022-09-21T04:46:40.602Z,8.71
2022-09-21T04:49:09.010Z,8.72
2022-09-21T04:51:37.365Z,8.73
2022-09-21T04:54:06.910Z,8.75
2022-09-21T04:56:35.463Z,8.75
2022-09-21T04:59:04.682Z,8.77
2022-09-21T05:01:33.534Z,8.78
2022-09-21T05:04:03.181Z,8.80
2022-09-21T05:06:35.228Z,8.81
2022-09-21T05:09:22.577Z,8.83
2022-09-21T05:11:52.306Z,8.84
2022-09-21T05:14:20.578Z,8.86
2022-09-21T05:16:49.973Z,8.85
2022-09-21T05:19:18.284Z,8.87
2022-09-21T05:21:46.612Z,8.89
2022-09-21T05:24:14.938Z,8.90
2022-09-21T05:26:43.106Z,8.92
2022-09-21T05:29:11.669Z,8.95
2022-09-21T05:31:54.753Z,8.97
2022-09-21T05:34:41.837Z,8.99
2022-09-21T05:37:44.557Z,8.99
2022-09-21T05:40:14.210Z,9.00
2022-09-21T05:42:42.986Z,9.02
2022-09-21T05:45:15.767Z,9.03
2022-09-21T05:48:21.017Z,9.03
2022-09-21T05:50:59.493Z,9.07
2022-09-21T05:53:33.644Z,9.11
2022-09-21T05:56:24.678Z,9.16
2022-09-21T05:59:15.557Z,9.22
2022-09-21T06:01:55.857Z,9.27
2022-09-21T06:04:24.459Z,9.32
2022-09-21T06:06:52.885Z,9.37
2022-09-21T06:09:21.172Z,9.41
2022-09-21T06:11:49.965Z,9.45
2022-09-21T06:14:24.872Z,9.51
2022-09-21T06:16:53.243Z,9.53
2022-09-21T06:19:21.457Z,9.54
2022-09-21T06:21:49.717Z,9.54
2022-09-21T06:24:18.033Z,9.57
2022-09-21T06:26:46.234Z,9.58
2022-09-21T06:29:14.606Z,9.61
2022-09-21T06:31:42.869Z,9.61
2022-09-21T06:34:11.054Z,9.59
2022-09-21T06:36:39.300Z,9.60
2022-09-21T06:39:07.605Z,9.61
2022-09-21T06:41:35.767Z,9.62
2022-09-21T06:44:04.387Z,9.64
2022-09-21T06:46:32.761Z,9.70
2022-09-21T06:49:01.363Z,9.75
2022-09-21T06:51:29.681Z,9.79
2022-09-21T06:53:59.451Z,9.83
2022-09-21T06:56:27.778Z,9.91
2022-09-21T06:58:56.046Z,9.94
2022-09-21T07:01:27.394Z,9.98
2022-09-21T07:03:55.786Z,10.00
2022-09-21T07:06:24.234Z,10.02
2022-09-21T07:11:42.135Z,10.11
2022-09-21T07:14:10.378Z,10.17
2022-09-21T07:16:38.639Z,10.24
2022-09-21T07:19:10.947Z,10.29
2022-09-21T07:21:40.065Z,10.31
2022-09-21T07:24:12.188Z,10.35
2022-09-21T07:26:41.038Z,10.35
2022-09-21T07:29:09.359Z,10.38
2022-09-21T07:31:38.377Z,10.42
2022-09-21T07:34:09.263Z,10.45
2022-09-21T07:36:37.513Z,10.45
2022-09-21T07:39:06.417Z,10.46
2022-09-21T07:41:34.680Z,10.46
2022-09-21T07:44:03.814Z,10.49
2022-09-21T07:46:32.105Z,10.53
2022-09-21T07:49:00.701Z,10.58
2022-09-21T07:51:29.022Z,10.63
2022-09-21T07:53:57.449Z,10.69
2022-09-21T07:56:26.063Z,10.74
2022-09-21T07:59:06.374Z,10.76
2022-09-21T08:01:40.035Z,10.78
2022-09-21T08:04:10.382Z,10.78
2022-09-21T08:06:40.551Z,10.80
2022-09-21T08:09:08.966Z,10.81
2022-09-21T08:11:38.313Z,10.83
2022-09-21T08:14:06.815Z,10.87
2022-09-21T08:16:35.886Z,10.89
2022-09-21T08:19:07.375Z,10.91
2022-09-21T08:21:36.019Z,10.94
2022-09-21T08:24:04.577Z,10.95
2022-09-21T08:26:33.837Z,10.98
2022-09-21T08:29:02.930Z,11.01
2022-09-21T08:31:31.340Z,11.03
2022-09-21T08:34:00.904Z,11.05
2022-09-21T08:36:29.213Z,11.05
2022-09-21T08:38:57.723Z,11.03
2022-09-21T08:41:41.142Z,11.01
2022-09-21T08:44:16.888Z,10.97
2022-09-21T08:46:49.090Z,10.94
2022-09-21T08:49:24.802Z,10.92
2022-09-21T08:52:00.544Z,10.95
2022-09-21T08:54:44.085Z,10.98
2022-09-21T08:57:14.732Z,11.01
2022-09-21T08:59:50.780Z,11.06
2022-09-21T09:02:34.210Z,11.09
2022-09-21T09:05:27.371Z,11.10
2022-09-21T09:08:33.134Z,11.15
2022-09-21T09:11:01.430Z,11.25
2022-09-21T09:13:51.123Z,11.35
2022-09-21T09:16:50.154Z,11.46
2022-09-21T09:19:33.427Z,11.68
2022-09-21T09:22:07.193Z,11.88
2022-09-21T09:24:42.703Z,12.00
2022-09-21T09:27:34.664Z,12.06
2022-09-21T09:30:12.762Z,12.08
2022-09-21T09:33:08.494Z,12.09
2022-09-21T09:35:39.790Z,12.02
2022-09-21T09:38:34.546Z,12.05
2022-09-21T09:41:28.821Z,12.12
2022-09-21T09:44:06.325Z,12.21
2022-09-21T09:46:37.295Z,12.35
2022-09-21T09:49:44.666Z,12.44
2022-09-21T09:52:15.570Z,12.52
2022-09-21T09:54:44.673Z,12.58
2022-09-21T09:57:13.198Z,12.65
2022-09-21T09:59:44.387Z,12.70
2022-09-21T10:02:25.100Z,12.74
2022-09-21T10:05:35.427Z,12.73
2022-09-21T10:08:04.529Z,12.70
2022-09-21T10:10:38.303Z,12.63
2022-09-21T10:13:21.988Z,12.48
2022-09-21T10:15:56.228Z,12.39
2022-09-21T10:18:29.182Z,12.36
2022-09-21T10:21:06.398Z,12.39
2022-09-21T10:23:36.969Z,12.45
2022-09-21T10:26:12.402Z,12.55
2022-09-21T10:29:01.856Z,12.66
2022-09-21T10:31:31.495Z,12.81
2022-09-21T10:34:16.383Z,12.86
2022-09-21T10:36:55.273Z,12.95
2022-09-21T10:39:28.183Z,12.97
2022-09-21T10:42:13.139Z,12.96
2022-09-21T10:44:47.433Z,12.89
2022-09-21T10:47:18.683Z,12.88
2022-09-21T10:49:56.342Z,12.81
2022-09-21T10:52:34.526Z,12.73
2022-09-21T10:55:03.162Z,12.63
2022-09-21T10:57:33.937Z,12.61
2022-09-21T11:00:24.404Z,12.61
2022-09-21T11:02:55.196Z,12.64
2022-09-21T11:05:38.371Z,12.71
2022-09-21T11:08:16.789Z,12.76
2022-09-21T11:11:13.793Z,12.77
2022-09-21T11:13:56.853Z,12.86
2022-09-21T11:16:35.690Z,12.97
2022-09-21T11:19:39.282Z,13.06
2022-09-21T11:22:40.857Z,13.14
2022-09-21T11:25:31.517Z,13.08
2022-09-21T11:28:34.366Z,13.03
2022-09-21T11:31:11.950Z,13.06
2022-09-21T11:34:08.126Z,13.23
2022-09-21T11:37:19.050Z,13.41
2022-09-21T11:40:15.472Z,13.49
2022-09-21T11:42:55.830Z,13.57
2022-09-21T11:45:50.683Z,13.76
2022-09-21T11:48:28.839Z,14.00
2022-09-21T11:51:21.597Z,14.13
2022-09-21T11:53:58.020Z,14.29
2022-09-21T11:56:59.193Z,14.31
2022-09-21T11:59:34.594Z,14.28
2022-09-21T12:02:25.371Z,14.38
2022-09-21T12:05:02.759Z,14.51
2022-09-21T12:07:43.110Z,14.63
2022-09-21T12:10:31.367Z,14.78
2022-09-21T12:13:02.577Z,14.94
2022-09-21T12:15:41.806Z,14.92
2022-09-21T12:18:14.881Z,14.89
2022-09-21T12:20:46.032Z,14.85
2022-09-21T12:23:22.108Z,14.83
2022-09-21T12:25:54.857Z,14.86
2022-09-21T12:28:32.673Z,14.78
2022-09-21T12:31:12.362Z,14.67
2022-09-21T12:33:48.160Z,14.62
2022-09-21T12:36:22.014Z,14.65
2022-09-21T12:39:08.152Z,14.68
2022-09-21T12:41:48.257Z,14.68
2022-09-21T12:44:36.254Z,14.69
2022-09-21T12:47:11.780Z,14.67
2022-09-21T12:49:48.785Z,14.62
2022-09-21T12:52:26.209Z,14.60
2022-09-21T12:55:00.420Z,14.68
2022-09-21T12:58:14.568Z,14.78
2022-09-21T13:01:11.971Z,14.85
2022-09-21T13:03:56.260Z,14.93
2022-09-21T13:06:43.282Z,15.10
2022-09-21T13:09:15.690Z,15.26
2022-09-21T13:12:09.633Z,15.56
2022-09-21T13:14:44.926Z,15.66
2022-09-21T13:17:29.729Z,15.79
2022-09-21T13:19:57.926Z,15.98
2022-09-21T13:22:31.160Z,16.13
2022-09-21T13:25:08.906Z,16.32
2022-09-21T13:28:15.752Z,16.47
2022-09-21T13:30:45.293Z,16.54
2022-09-21T13:33:19.979Z,16.28
2022-09-21T13:36:04.034Z,15.86
2022-09-21T13:38:57.472Z,15.40
2022-09-21T13:44:43.370Z,14.66
2022-09-21T13:47:13.305Z,14.45
2022-09-21T13:49:58.380Z,14.26
2022-09-21T13:52:40.569Z,14.05
2022-09-21T13:55:28.544Z,13.83
2022-09-21T13:58:04.990Z,13.57
2022-09-21T14:00:52.319Z,13.35
2022-09-21T14:03:25.654Z,13.16
2022-09-21T14:06:01.490Z,13.03
2022-09-21T14:08:58.403Z,12.92
2022-09-21T14:11:50.014Z,12.85
2022-09-21T14:14:21.608Z,12.81
2022-09-21T14:16:55.976Z,12.82
2022-09-21T14:19:27.150Z,12.81
2022-09-21T14:22:10.755Z,12.80
2022-09-21T14:24:49.092Z,12.77
2022-09-21T14:27:33.450Z,12.78
2022-09-21T14:30:08.287Z,12.80
2022-09-21T14:32:47.589Z,12.83
2022-09-21T14:35:21.039Z,12.82
2022-09-21T14:38:13.864Z,12.82
2022-09-21T14:40:48.681Z,12.87
2022-09-21T14:43:28.204Z,12.90
2022-09-21T14:46:17.078Z,12.91
2022-09-21T14:49:18.924Z,12.92
2022-09-21T14:52:24.895Z,12.92
2022-09-21T14:55:18.194Z,12.88
2022-09-21T14:58:00.266Z,12.87
2022-09-21T15:00:59.913Z,12.85
2022-09-21T15:03:47.671Z,12.84
2022-09-21T15:06:48.588Z,12.79
2022-09-21T15:09:57.001Z,12.72
2022-09-21T15:12:42.746Z,12.55
2022-09-21T15:15:32.841Z,12.39
2022-09-21T15:18:03.152Z,12.27
2022-09-21T15:20:32.413Z,12.17
2022-09-21T15:23:00.646Z,12.08
2022-09-21T15:25:33.659Z,12.00
2022-09-21T15:28:03.321Z,11.93
2022-09-21T15:30:33.446Z,11.82
2022-09-21T15:33:02.931Z,11.73
2022-09-21T15:35:33.677Z,11.66
2022-09-21T15:38:01.946Z,11.62
2022-09-21T15:40:47.595Z,11.58
2022-09-21T15:43:21.042Z,11.54
2022-09-21T15:45:54.229Z,11.52
2022-09-21T15:48:24.270Z,11.51
2022-09-21T15:51:04.995Z,11.49
2022-09-21T15:53:45.733Z,11.49
2022-09-21T15:56:26.237Z,11.49
2022-09-21T15:59:09.263Z,11.51
2022-09-21T16:01:45.468Z,11.51
2022-09-21T16:04:18.643Z,11.50
2022-09-21T16:07:00.632Z,11.47
2022-09-21T16:09:39.186Z,11.43
2022-09-21T16:12:42.977Z,11.38
2022-09-21T16:15:33.327Z,11.29
2022-09-21T16:18:05.398Z,11.23
2022-09-21T16:20:48.620Z,11.20
2022-09-21T16:23:25.718Z,11.15
2022-09-21T16:26:01.658Z,11.11
2022-09-21T16:28:36.287Z,11.07
2022-09-21T16:31:40.143Z,11.03
2022-09-21T16:34:37.559Z,10.97
2022-09-21T16:37:30.645Z,10.94
2022-09-21T16:39:59.757Z,10.93
2022-09-21T16:42:32.957Z,10.91
2022-09-21T16:45:09.901Z,10.90
2022-09-21T16:47:38.525Z,10.88
2022-09-21T16:50:12.886Z,10.86
2022-09-21T16:52:41.144Z,10.84
2022-09-21T16:55:10.837Z,10.82
2022-09-21T16:57:39.076Z,10.79
2022-09-21T17:00:20.942Z,10.76
2022-09-21T17:02:49.835Z,10.73
2022-09-21T17:05:20.862Z,10.70
2022-09-21T17:07:59.599Z,10.68
2022-09-21T17:10:33.379Z,10.67
2022-09-21T17:13:04.730Z,10.64
2022-09-21T17:15:33.966Z,10.64
2022-09-21T17:18:04.057Z,10.63
2022-09-21T17:20:41.898Z,10.61
2022-09-21T17:23:10.832Z,10.58
2022-09-21T17:25:39.098Z,10.54
2022-09-21T17:28:26.148Z,10.52
2022-09-21T17:30:55.039Z,10.50
2022-09-21T17:33:26.275Z,10.47
2022-09-21T17:35:56.778Z,10.44
2022-09-21T17:38:25.087Z,10.42
2022-09-21T17:40:53.922Z,10.39
2022-09-21T17:43:50.409Z,10.36
2022-09-21T17:46:18.634Z,10.32
2022-09-21T17:48:47.221Z,10.30
2022-09-21T17:51:35.641Z,10.28
2022-09-21T17:54:04.306Z,10.28
2022-09-21T17:57:09.409Z,10.28
2022-09-21T17:59:38.157Z,10.26
2022-09-21T18:02:26.578Z,10.24
2022-09-21T18:05:02.442Z,10.22
2022-09-21T18:07:31.114Z,10.20
2022-09-21T18:09:59.694Z,10.20
2022-09-21T18:13:04.954Z,10.19
2022-09-21T18:15:50.350Z,10.16
2022-09-21T18:18:38.730Z,10.14
2022-09-21T18:21:40.840Z,10.11
2022-09-21T18:24:22.223Z,10.07
2022-09-21T18:26:52.515Z,10.06
2022-09-21T18:29:38.823Z,10.05
2022-09-21T18:32:29.747Z,10.03
2022-09-21T18:35:04.245Z,10.02
2022-09-21T18:37:50.638Z,10.01
2022-09-21T18:40:46.176Z,10.01
2022-09-21T18:43:37.201Z,9.99
2022-09-21T18:46:22.567Z,9.96
2022-09-21T18:49:09.375Z,9.94
2022-09-21T18:51:57.242Z,9.91
2022-09-21T18:54:27.818Z,9.89
2022-09-21T18:56:57.545Z,9.87
2022-09-21T18:59:31.031Z,9.87
2022-09-21T19:02:00.902Z,9.85
2022-09-21T19:04:30.005Z,9.83
2022-09-21T19:07:39.587Z,9.83
2022-09-21T19:10:40.400Z,9.82
2022-09-21T19:13:15.475Z,9.78
2022-09-21T19:16:11.691Z,9.77
2022-09-21T19:18:52.598Z,9.74
2022-09-21T19:22:05.113Z,9.72
2022-09-21T19:25:04.834Z,9.70
2022-09-21T19:27:43.179Z,9.69
2022-09-21T19:30:14.871Z,9.67
2022-09-21T19:32:50.087Z,9.67
2022-09-21T19:35:26.024Z,9.67
2022-09-21T19:37:56.588Z,9.68
2022-09-21T19:40:27.707Z,9.66
2022-09-21T19:43:24.297Z,9.67
2022-09-21T19:46:25.005Z,9.66
2022-09-21T19:48:59.771Z,9.65
2022-09-21T19:51:34.148Z,9.65
2022-09-21T19:54:22.156Z,9.67
2022-09-21T19:57:20.337Z,9.68
2022-09-21T19:59:49.790Z,9.68
2022-09-21T20:02:45.570Z,9.67
2022-09-21T20:05:19.876Z,9.66
2022-09-21T20:07:55.339Z,9.65
2022-09-21T20:10:24.963Z,9.66
2022-09-21T20:13:14.937Z,9.65
2022-09-21T20:16:21.273Z,9.66
2022-09-21T20:19:20.607Z,9.69
2022-09-21T20:21:57.179Z,9.69
2022-09-21T20:24:32.752Z,9.68
2022-09-21T20:27:03.461Z,9.66
2022-09-21T20:29:31.661Z,9.67
2022-09-21T20:32:01.064Z,9.67
2022-09-21T20:34:29.276Z,9.66
2022-09-21T20:36:57.550Z,9.68
2022-09-21T20:39:25.747Z,9.70
2022-09-21T20:41:54.303Z,9.73
2022-09-21T20:44:22.668Z,9.75
2022-09-21T20:46:50.938Z,9.75
2022-09-21T20:49:19.989Z,9.76
2022-09-21T20:51:48.982Z,9.76
2022-09-21T20:54:17.400Z,9.76
2022-09-21T20:56:46.646Z,9.76
2022-09-21T20:59:14.969Z,9.75
2022-09-21T21:01:43.332Z,9.73
2022-09-21T21:04:13.406Z,9.71
2022-09-21T21:06:41.799Z,9.70
2022-09-21T21:09:10.123Z,9.71
2022-09-21T21:11:38.615Z,9.69
2022-09-21T21:14:07.110Z,9.69
2022-09-21T21:16:35.532Z,9.69
2022-09-21T21:19:04.121Z,9.70
2022-09-21T21:21:33.136Z,9.71
2022-09-21T21:24:20.413Z,9.69
2022-09-21T21:27:01.729Z,9.69
2022-09-21T21:29:32.758Z,9.70
2022-09-21T21:32:01.492Z,9.69
2022-09-21T21:34:29.810Z,9.68
2022-09-21T21:36:59.124Z,9.68
2022-09-21T21:39:27.354Z,9.68
2022-09-21T21:41:55.623Z,9.67
2022-09-21T21:44:24.040Z,9.64
2022-09-21T21:46:53.651Z,9.65
2022-09-21T21:49:21.873Z,9.63
2022-09-21T21:51:51.134Z,9.61
2022-09-21T21:54:23.822Z,9.61
2022-09-21T21:56:57.721Z,9.62
2022-09-21T21:59:25.917Z,9.62
2022-09-21T22:01:54.659Z,9.62
2022-09-21T22:04:27.075Z,9.61
2022-09-21T22:06:56.385Z,9.59
2022-09-21T22:09:24.648Z,9.59
2022-09-21T22:11:52.899Z,9.57
2022-09-21T22:14:21.153Z,9.56
2022-09-21T22:16:50.321Z,9.55
2022-09-21T22:19:18.564Z,9.54
2022-09-21T22:21:53.177Z,9.52
2022-09-21T22:24:22.535Z,9.51
2022-09-21T22:26:51.358Z,9.50
2022-09-21T22:29:19.517Z,9.49
2022-09-21T22:31:50.235Z,9.49
2022-09-21T22:34:20.782Z,9.49
2022-09-21T22:36:50.507Z,9.49
2022-09-21T22:39:18.833Z,9.49
2022-09-21T22:41:47.046Z,9.48
2022-09-21T22:44:16.030Z,9.47
2022-09-21T22:46:44.273Z,9.44
2022-09-21T22:49:12.473Z,9.41
2022-09-21T22:51:40.772Z,9.40
2022-09-21T22:54:09.136Z,9.37
2022-09-21T22:56:37.406Z,9.36
2022-09-21T22:59:06.023Z,9.34
2022-09-21T23:01:39.328Z,9.28
2022-09-21T23:04:10.798Z,9.22
2022-09-21T23:06:42.117Z,9.18
2022-09-21T23:09:17.237Z,9.16
2022-09-21T23:11:48.929Z,9.12
2022-09-21T23:14:17.297Z,9.10
2022-09-21T23:16:46.377Z,9.08
2022-09-21T23:19:17.824Z,9.05
2022-09-21T23:21:52.941Z,9.02
2022-09-21T23:24:21.050Z,8.98
2022-09-21T23:26:51.824Z,8.97
2022-09-21T23:29:20.187Z,8.95
2022-09-21T23:31:48.583Z,8.95
2022-09-21T23:34:17.326Z,8.95
2022-09-21T23:36:45.720Z,8.95
2022-09-21T23:39:15.765Z,8.95
2022-09-21T23:41:44.833Z,8.93
2022-09-21T23:44:13.408Z,8.94
2022-09-21T23:46:42.445Z,8.97
2022-09-21T23:49:11.055Z,8.97
2022-09-21T23:51:39.924Z,8.98
2022-09-21T23:54:08.185Z,8.98
2022-09-21T23:56:37.073Z,8.99
2022-09-21T23:59:05.777Z,9.00
